sensor_id;sensor_type;location;lat;lon;timestamp;temperature;humidity
8402;DHT22;4238;48.404;9.498;2023-06-24T04:00:55;11.20;99.90
8402;DHT22;4238;48.404;9.498;2023-06-24T04:03:23;11.20;99.90
8402;DHT22;4238;48.404;9.498;2023-06-24T04:05:53;11.30;99.90
8402;DHT22;4238;48.404;9.498;2023-06-24T04:08:20;11.30;99.90
8402;DHT22;4238;48.404;9.498;2023-06-24T04:10:46;11.40;99.90
8402;DHT22;4238;48.404;9.498;2023-06-24T04:13:13;11.40;99.90
8402;DHT22;4238;48.404;9.498;2023-06-24T04:15:40;11.50;99.90
8402;DHT22;4238;48.404;9.498;2023-06-24T04:18:08;11.50;99.90
8402;DHT22;4238;48.404;9.498;2023-06-24T04:20:35;11.60;99.90
8402;DHT22;4238;48.404;9.498;2023-06-24T04:23:03;11.70;99.90
8402;DHT22;4238;48.404;9.498;2023-06-24T04:25:30;11.70;99.90
8402;DHT22;4238;48.404;9.498;2023-06-24T04:27:56;11.70;99.90
8402;DHT22;4238;48.404;9.498;2023-06-24T04:30:23;11.80;99.90
8402;DHT22;4238;48.404;9.498;2023-06-24T04:32:50;12.00;99.90
8402;DHT22;4238;48.404;9.498;2023-06-24T04:35:19;12.10;99.90
8402;DHT22;4238;48.404;9.498;2023-06-24T04:37:45;12.20;99.90
8402;DHT22;4238;48.404;9.498;2023-06-24T04:40:14;12.30;99.90
8402;DHT22;4238;48.404;9.498;2023-06-24T04:42:41;12.50;99.90
8402;DHT22;4238;48.404;9.498;2023-06-24T04:45:09;12.60;99.90
8402;DHT22;4238;48.404;9.498;2023-06-24T04:47:36;12.80;99.90
8402;DHT22;4238;48.404;9.498;2023-06-24T04:50:03;12.90;99.90
8402;DHT22;4238;48.404;9.498;2023-06-24T04:52:32;13.00;99.90
8402;DHT22;4238;48.404;9.498;2023-06-24T04:54:59;13.20;99.90
8402;DHT22;4238;48.404;9.498;2023-06-24T04:57:27;13.30;99.90
8402;DHT22;4238;48.404;9.498;2023-06-24T04:59:55;13.50;99.90
8402;DHT22;4238;48.404;9.498;2023-06-24T05:02:22;13.60;99.90
8402;DHT22;4238;48.404;9.498;2023-06-24T05:04:50;13.70;99.60
8402;DHT22;4238;48.404;9.498;2023-06-24T05:07:18;13.90;99.90
8402;DHT22;4238;48.404;9.498;2023-06-24T05:09:47;13.90;99.90
8402;DHT22;4238;48.404;9.498;2023-06-24T05:12:15;14.10;99.90
8402;DHT22;4238;48.404;9.498;2023-06-24T05:14:42;14.30;95.70
8402;DHT22;4238;48.404;9.498;2023-06-24T05:17:08;14.40;91.60
8402;DHT22;4238;48.404;9.498;2023-06-24T05:19:35;14.50;90.70
8402;DHT22;4238;48.404;9.498;2023-06-24T05:22:02;14.70;81.60
8402;DHT22;4238;48.404;9.498;2023-06-24T05:24:29;14.80;84.10
8402;DHT22;4238;48.404;9.498;2023-06-24T05:27:04;15.00;70.10
8402;DHT22;4238;48.404;9.498;2023-06-24T05:29:31;15.30;70.80
8402;DHT22;4238;48.404;9.498;2023-06-24T05:31:58;15.40;56.60
8402;DHT22;4238;48.404;9.498;2023-06-24T05:34:25;15.60;50.50
8402;DHT22;4238;48.404;9.498;2023-06-24T05:36:52;15.90;38.80
8402;DHT22;4238;48.404;9.498;2023-06-24T05:39:20;16.00;39.10
8402;DHT22;4238;48.404;9.498;2023-06-24T05:41:47;16.10;30.80
8402;DHT22;4238;48.404;9.498;2023-06-24T05:44:15;16.20;32.90
8402;DHT22;4238;48.404;9.498;2023-06-24T05:46:43;16.30;31.30
8402;DHT22;4238;48.404;9.498;2023-06-24T05:49:10;16.40;32.30
8402;DHT22;4238;48.404;9.498;2023-06-24T05:51:37;16.60;24.00
8402;DHT22;4238;48.404;9.498;2023-06-24T05:54:04;16.60;13.20
8402;DHT22;4238;48.404;9.498;2023-06-24T05:56:33;16.90;1.00
8402;DHT22;4238;48.404;9.498;2023-06-24T05:58:59;17.10;1.00
8402;DHT22;4238;48.404;9.498;2023-06-24T06:01:28;17.40;1.00
8402;DHT22;4238;48.404;9.498;2023-06-24T06:03:55;17.70;1.00
8402;DHT22;4238;48.404;9.498;2023-06-24T06:06:21;17.70;1.00
8402;DHT22;4238;48.404;9.498;2023-06-24T06:08:48;17.70;1.00
8402;DHT22;4238;48.404;9.498;2023-06-24T06:11:15;18.10;1.00
8402;DHT22;4238;48.404;9.498;2023-06-24T06:13:42;18.30;1.00
8402;DHT22;4238;48.404;9.498;2023-06-24T06:16:09;18.40;99.90
8402;DHT22;4238;48.404;9.498;2023-06-24T06:18:37;18.50;1.00
8402;DHT22;4238;48.404;9.498;2023-06-24T06:21:04;18.70;1.00
8402;DHT22;4238;48.404;9.498;2023-06-24T06:23:31;18.90;1.00
8402;DHT22;4238;48.404;9.498;2023-06-24T06:25:58;18.90;99.90
8402;DHT22;4238;48.404;9.498;2023-06-24T06:28:25;19.00;1.00
8402;DHT22;4238;48.404;9.498;2023-06-24T06:30:51;19.10;99.90
8402;DHT22;4238;48.404;9.498;2023-06-24T06:33:18;19.20;1.00
8402;DHT22;4238;48.404;9.498;2023-06-24T06:35:46;19.30;1.00
8402;DHT22;4238;48.404;9.498;2023-06-24T06:38:13;19.50;99.90
8402;DHT22;4238;48.404;9.498;2023-06-24T06:40:40;19.70;51.50
8402;DHT22;4238;48.404;9.498;2023-06-24T06:43:07;19.90;1.00
8402;DHT22;4238;48.404;9.498;2023-06-24T06:45:34;19.90;99.90
8402;DHT22;4238;48.404;9.498;2023-06-24T06:48:02;20.20;99.90
8402;DHT22;4238;48.404;9.498;2023-06-24T06:50:32;20.40;99.90
8402;DHT22;4238;48.404;9.498;2023-06-24T06:53:00;20.70;1.00
8402;DHT22;4238;48.404;9.498;2023-06-24T06:55:27;20.80;1.00
8402;DHT22;4238;48.404;9.498;2023-06-24T06:57:54;20.80;99.90
8402;DHT22;4238;48.404;9.498;2023-06-24T07:00:22;21.00;99.90
8402;DHT22;4238;48.404;9.498;2023-06-24T07:02:48;21.00;1.00
8402;DHT22;4238;48.404;9.498;2023-06-24T07:05:15;20.60;99.90
8402;DHT22;4238;48.404;9.498;2023-06-24T07:07:43;20.80;1.00
8402;DHT22;4238;48.404;9.498;2023-06-24T07:10:12;21.00;99.90
8402;DHT22;4238;48.404;9.498;2023-06-24T07:12:39;21.10;1.00
8402;DHT22;4238;48.404;9.498;2023-06-24T07:15:06;21.30;1.00
8402;DHT22;4238;48.404;9.498;2023-06-24T07:17:33;21.50;99.90
8402;DHT22;4238;48.404;9.498;2023-06-24T07:20:00;21.70;1.00
8402;DHT22;4238;48.404;9.498;2023-06-24T07:22:27;21.90;1.00
8402;DHT22;4238;48.404;9.498;2023-06-24T07:24:56;22.30;1.00
8402;DHT22;4238;48.404;9.498;2023-06-24T07:27:24;22.40;1.00
8402;DHT22;4238;48.404;9.498;2023-06-24T07:29:51;22.40;99.90
8402;DHT22;4238;48.404;9.498;2023-06-24T07:32:18;22.20;90.00
8402;DHT22;4238;48.404;9.498;2023-06-24T07:34:44;21.70;38.20
8402;DHT22;4238;48.404;9.498;2023-06-24T07:37:11;21.90;99.90
8402;DHT22;4238;48.404;9.498;2023-06-24T07:39:38;21.90;99.90
8402;DHT22;4238;48.404;9.498;2023-06-24T07:42:05;22.30;99.90
8402;DHT22;4238;48.404;9.498;2023-06-24T07:44:33;22.40;14.30
8402;DHT22;4238;48.404;9.498;2023-06-24T07:47:02;22.30;1.00
8402;DHT22;4238;48.404;9.498;2023-06-24T07:49:29;22.30;50.30
8402;DHT22;4238;48.404;9.498;2023-06-24T07:51:56;22.20;99.90
8402;DHT22;4238;48.404;9.498;2023-06-24T07:54:23;22.30;1.00
8402;DHT22;4238;48.404;9.498;2023-06-24T07:56:49;22.50;99.90
8402;DHT22;4238;48.404;9.498;2023-06-24T07:59:16;22.50;99.90
8402;DHT22;4238;48.404;9.498;2023-06-24T08:01:44;23.00;15.70
8402;DHT22;4238;48.404;9.498;2023-06-24T08:04:11;23.00;1.00
8402;DHT22;4238;48.404;9.498;2023-06-24T08:06:38;22.80;83.40
8402;DHT22;4238;48.404;9.498;2023-06-24T08:09:05;22.20;1.00
8402;DHT22;4238;48.404;9.498;2023-06-24T08:11:32;22.10;99.90
8402;DHT22;4238;48.404;9.498;2023-06-24T08:13:59;22.60;83.60
8402;DHT22;4238;48.404;9.498;2023-06-24T08:16:27;23.20;1.00
8402;DHT22;4238;48.404;9.498;2023-06-24T08:18:55;23.20;1.00
8402;DHT22;4238;48.404;9.498;2023-06-24T08:21:22;23.10;99.90
8402;DHT22;4238;48.404;9.498;2023-06-24T08:23:49;23.10;99.90
8402;DHT22;4238;48.404;9.498;2023-06-24T08:26:17;23.50;1.00
8402;DHT22;4238;48.404;9.498;2023-06-24T08:28:45;23.30;99.90
8402;DHT22;4238;48.404;9.498;2023-06-24T08:31:11;22.90;99.90
8402;DHT22;4238;48.404;9.498;2023-06-24T08:33:38;22.40;1.00
8402;DHT22;4238;48.404;9.498;2023-06-24T08:36:07;22.10;1.00
8402;DHT22;4238;48.404;9.498;2023-06-24T08:38:34;22.00;1.00
8402;DHT22;4238;48.404;9.498;2023-06-24T08:41:00;22.50;62.70
8402;DHT22;4238;48.404;9.498;2023-06-24T08:43:27;23.10;1.00
8402;DHT22;4238;48.404;9.498;2023-06-24T08:45:54;23.60;1.00
8402;DHT22;4238;48.404;9.498;2023-06-24T08:48:21;23.90;1.00
8402;DHT22;4238;48.404;9.498;2023-06-24T08:50:51;23.80;99.90
8402;DHT22;4238;48.404;9.498;2023-06-24T08:53:21;24.30;99.90
8402;DHT22;4238;48.404;9.498;2023-06-24T08:55:49;23.90;99.90
8402;DHT22;4238;48.404;9.498;2023-06-24T08:58:18;24.50;99.90
8402;DHT22;4238;48.404;9.498;2023-06-24T09:00:45;24.80;99.90
8402;DHT22;4238;48.404;9.498;2023-06-24T09:03:12;25.00;99.90
8402;DHT22;4238;48.404;9.498;2023-06-24T09:05:39;25.00;99.90
8402;DHT22;4238;48.404;9.498;2023-06-24T09:08:06;25.00;1.00
8402;DHT22;4238;48.404;9.498;2023-06-24T09:10:36;25.50;1.00
8402;DHT22;4238;48.404;9.498;2023-06-24T09:13:04;25.30;1.00
8402;DHT22;4238;48.404;9.498;2023-06-24T09:15:31;25.30;1.00
8402;DHT22;4238;48.404;9.498;2023-06-24T09:17:58;25.20;1.00
8402;DHT22;4238;48.404;9.498;2023-06-24T09:20:26;25.20;1.00
8402;DHT22;4238;48.404;9.498;2023-06-24T09:22:58;24.60;1.00
8402;DHT22;4238;48.404;9.498;2023-06-24T09:25:25;24.50;1.00
8402;DHT22;4238;48.404;9.498;2023-06-24T09:27:54;24.00;1.00
8402;DHT22;4238;48.404;9.498;2023-06-24T09:30:22;23.60;8.70
8402;DHT22;4238;48.404;9.498;2023-06-24T09:32:50;23.50;1.00
8402;DHT22;4238;48.404;9.498;2023-06-24T09:35:18;23.50;1.00
8402;DHT22;4238;48.404;9.498;2023-06-24T09:37:49;24.10;76.90
8402;DHT22;4238;48.404;9.498;2023-06-24T09:40:16;24.60;1.00
8402;DHT22;4238;48.404;9.498;2023-06-24T09:42:51;24.50;1.00
8402;DHT22;4238;48.404;9.498;2023-06-24T09:45:26;24.20;1.00
8402;DHT22;4238;48.404;9.498;2023-06-24T09:47:54;24.70;1.00
8402;DHT22;4238;48.404;9.498;2023-06-24T09:50:21;24.20;1.00
8402;DHT22;4238;48.404;9.498;2023-06-24T09:52:49;24.10;1.00
8402;DHT22;4238;48.404;9.498;2023-06-24T09:55:17;24.70;1.00
8402;DHT22;4238;48.404;9.498;2023-06-24T09:57:46;25.20;1.00
8402;DHT22;4238;48.404;9.498;2023-06-24T10:00:14;25.40;1.00
8402;DHT22;4238;48.404;9.498;2023-06-24T10:02:44;25.70;1.00
8402;DHT22;4238;48.404;9.498;2023-06-24T10:05:12;25.90;1.00
8402;DHT22;4238;48.404;9.498;2023-06-24T10:07:40;26.00;1.00
8402;DHT22;4238;48.404;9.498;2023-06-24T10:10:07;25.90;1.00
8402;DHT22;4238;48.404;9.498;2023-06-24T10:12:35;25.40;1.00
8402;DHT22;4238;48.404;9.498;2023-06-24T10:15:03;25.20;1.00
8402;DHT22;4238;48.404;9.498;2023-06-24T10:17:30;24.60;1.00
8402;DHT22;4238;48.404;9.498;2023-06-24T10:20:03;24.60;1.00
8402;DHT22;4238;48.404;9.498;2023-06-24T10:22:32;25.00;1.00
8402;DHT22;4238;48.404;9.498;2023-06-24T10:25:00;25.60;1.00
8402;DHT22;4238;48.404;9.498;2023-06-24T10:27:28;25.70;1.00
8402;DHT22;4238;48.404;9.498;2023-06-24T10:30:02;25.30;1.00
8402;DHT22;4238;48.404;9.498;2023-06-24T10:32:39;24.80;1.00
8402;DHT22;4238;48.404;9.498;2023-06-24T10:35:21;24.50;1.00
8402;DHT22;4238;48.404;9.498;2023-06-24T10:37:54;24.60;1.00
8402;DHT22;4238;48.404;9.498;2023-06-24T10:40:35;25.00;1.00
8402;DHT22;4238;48.404;9.498;2023-06-24T10:43:04;25.30;1.00
8402;DHT22;4238;48.404;9.498;2023-06-24T10:45:48;25.90;1.00
8402;DHT22;4238;48.404;9.498;2023-06-24T10:48:17;26.40;1.00
8402;DHT22;4238;48.404;9.498;2023-06-24T10:50:46;26.70;99.90
8402;DHT22;4238;48.404;9.498;2023-06-24T10:53:15;26.70;1.00
8402;DHT22;4238;48.404;9.498;2023-06-24T10:55:44;26.70;99.90
8402;DHT22;4238;48.404;9.498;2023-06-24T10:58:12;26.70;99.90
8402;DHT22;4238;48.404;9.498;2023-06-24T11:00:41;26.80;99.90
8402;DHT22;4238;48.404;9.498;2023-06-24T11:03:10;26.60;99.90
8402;DHT22;4238;48.404;9.498;2023-06-24T11:05:40;26.80;99.90
8402;DHT22;4238;48.404;9.498;2023-06-24T11:08:09;26.60;99.90
8402;DHT22;4238;48.404;9.498;2023-06-24T11:10:43;26.60;99.90
8402;DHT22;4238;48.404;9.498;2023-06-24T11:13:11;26.50;99.90
8402;DHT22;4238;48.404;9.498;2023-06-24T11:15:38;26.60;99.90
8402;DHT22;4238;48.404;9.498;2023-06-24T11:18:08;26.80;99.90
8402;DHT22;4238;48.404;9.498;2023-06-24T11:20:36;26.50;99.90
8402;DHT22;4238;48.404;9.498;2023-06-24T11:23:06;26.60;99.90
8402;DHT22;4238;48.404;9.498;2023-06-24T11:25:39;26.50;99.90
8402;DHT22;4238;48.404;9.498;2023-06-24T11:28:12;26.70;99.90
8402;DHT22;4238;48.404;9.498;2023-06-24T11:30:39;26.90;99.90
8402;DHT22;4238;48.404;9.498;2023-06-24T11:33:06;26.50;99.90
8402;DHT22;4238;48.404;9.498;2023-06-24T11:35:33;26.50;99.90
8402;DHT22;4238;48.404;9.498;2023-06-24T11:38:01;26.00;99.90
8402;DHT22;4238;48.404;9.498;2023-06-24T11:40:30;25.90;99.90
8402;DHT22;4238;48.404;9.498;2023-06-24T11:43:00;25.40;99.90
8402;DHT22;4238;48.404;9.498;2023-06-24T11:45:27;25.00;99.90
8402;DHT22;4238;48.404;9.498;2023-06-24T11:48:01;24.40;99.90
8402;DHT22;4238;48.404;9.498;2023-06-24T11:50:30;24.20;99.90
8402;DHT22;4238;48.404;9.498;2023-06-24T11:52:57;24.40;99.90
8402;DHT22;4238;48.404;9.498;2023-06-24T11:55:25;24.90;99.90
8402;DHT22;4238;48.404;9.498;2023-06-24T11:57:56;25.30;99.90
8402;DHT22;4238;48.404;9.498;2023-06-24T12:00:26;25.60;99.90
8402;DHT22;4238;48.404;9.498;2023-06-24T12:02:54;25.80;99.90
8402;DHT22;4238;48.404;9.498;2023-06-24T12:05:23;26.10;99.90
8402;DHT22;4238;48.404;9.498;2023-06-24T12:07:54;26.00;99.90
8402;DHT22;4238;48.404;9.498;2023-06-24T12:10:21;26.50;99.90
8402;DHT22;4238;48.404;9.498;2023-06-24T12:12:48;26.80;99.90
8402;DHT22;4238;48.404;9.498;2023-06-24T12:15:15;26.60;99.90
8402;DHT22;4238;48.404;9.498;2023-06-24T12:17:43;26.10;99.90
8402;DHT22;4238;48.404;9.498;2023-06-24T12:20:10;26.50;99.90
8402;DHT22;4238;48.404;9.498;2023-06-24T12:22:39;26.60;99.90
8402;DHT22;4238;48.404;9.498;2023-06-24T12:25:07;26.90;99.90
8402;DHT22;4238;48.404;9.498;2023-06-24T12:27:34;27.00;99.90
8402;DHT22;4238;48.404;9.498;2023-06-24T12:30:01;26.80;99.90
8402;DHT22;4238;48.404;9.498;2023-06-24T12:32:27;26.60;99.90
8402;DHT22;4238;48.404;9.498;2023-06-24T12:34:56;26.00;99.90
8402;DHT22;4238;48.404;9.498;2023-06-24T12:37:22;25.50;99.90
8402;DHT22;4238;48.404;9.498;2023-06-24T12:39:50;25.70;99.90
8402;DHT22;4238;48.404;9.498;2023-06-24T12:42:17;25.80;99.90
8402;DHT22;4238;48.404;9.498;2023-06-24T12:44:44;26.30;99.90
8402;DHT22;4238;48.404;9.498;2023-06-24T12:47:11;26.10;99.90
8402;DHT22;4238;48.404;9.498;2023-06-24T12:49:38;26.10;99.90
8402;DHT22;4238;48.404;9.498;2023-06-24T12:52:06;26.20;99.90
8402;DHT22;4238;48.404;9.498;2023-06-24T12:54:33;26.40;99.90
8402;DHT22;4238;48.404;9.498;2023-06-24T12:57:00;26.70;99.90
8402;DHT22;4238;48.404;9.498;2023-06-24T12:59:27;27.00;99.90
8402;DHT22;4238;48.404;9.498;2023-06-24T13:01:54;26.90;99.90
8402;DHT22;4238;48.404;9.498;2023-06-24T13:04:21;26.80;99.90
8402;DHT22;4238;48.404;9.498;2023-06-24T13:06:50;26.80;99.90
8402;DHT22;4238;48.404;9.498;2023-06-24T13:09:18;27.00;99.90
8402;DHT22;4238;48.404;9.498;2023-06-24T13:11:45;26.90;99.90
8402;DHT22;4238;48.404;9.498;2023-06-24T13:14:13;27.20;99.90
8402;DHT22;4238;48.404;9.498;2023-06-24T13:16:40;27.40;99.90
8402;DHT22;4238;48.404;9.498;2023-06-24T13:19:07;27.40;99.90
8402;DHT22;4238;48.404;9.498;2023-06-24T13:21:34;27.20;99.90
8402;DHT22;4238;48.404;9.498;2023-06-24T13:24:01;27.20;99.90
8402;DHT22;4238;48.404;9.498;2023-06-24T13:26:29;27.30;99.90
8402;DHT22;4238;48.404;9.498;2023-06-24T13:28:56;27.40;99.90
8402;DHT22;4238;48.404;9.498;2023-06-24T13:31:23;27.40;99.90
8402;DHT22;4238;48.404;9.498;2023-06-24T13:33:50;27.30;99.90
8402;DHT22;4238;48.404;9.498;2023-06-24T13:36:30;27.20;99.90
8402;DHT22;4238;48.404;9.498;2023-06-24T13:38:57;27.20;99.90
8402;DHT22;4238;48.404;9.498;2023-06-24T13:41:25;27.00;99.90
8402;DHT22;4238;48.404;9.498;2023-06-24T13:43:56;27.20;99.90
8402;DHT22;4238;48.404;9.498;2023-06-24T13:46:23;27.30;99.90
8402;DHT22;4238;48.404;9.498;2023-06-24T13:48:50;27.20;99.90
8402;DHT22;4238;48.404;9.498;2023-06-24T13:51:18;27.20;99.90
8402;DHT22;4238;48.404;9.498;2023-06-24T13:53:45;27.00;99.90
8402;DHT22;4238;48.404;9.498;2023-06-24T13:56:14;27.00;99.90
8402;DHT22;4238;48.404;9.498;2023-06-24T13:58:40;27.00;99.90
8402;DHT22;4238;48.404;9.498;2023-06-24T14:01:09;26.90;99.90
8402;DHT22;4238;48.404;9.498;2023-06-24T14:03:36;26.80;99.90
8402;DHT22;4238;48.404;9.498;2023-06-24T14:06:03;26.50;99.90
8402;DHT22;4238;48.404;9.498;2023-06-24T14:08:31;26.60;99.90
8402;DHT22;4238;48.404;9.498;2023-06-24T14:10:58;26.90;99.90
8402;DHT22;4238;48.404;9.498;2023-06-24T14:13:26;26.60;99.90
8402;DHT22;4238;48.404;9.498;2023-06-24T14:15:53;26.50;99.90
8402;DHT22;4238;48.404;9.498;2023-06-24T14:18:21;26.60;99.90
8402;DHT22;4238;48.404;9.498;2023-06-24T14:20:48;26.50;99.90
8402;DHT22;4238;48.404;9.498;2023-06-24T14:23:15;26.60;99.90
8402;DHT22;4238;48.404;9.498;2023-06-24T14:25:42;26.20;99.90
8402;DHT22;4238;48.404;9.498;2023-06-24T14:28:09;25.80;99.90
8402;DHT22;4238;48.404;9.498;2023-06-24T14:30:36;25.30;99.90
8402;DHT22;4238;48.404;9.498;2023-06-24T14:33:03;25.40;99.90
8402;DHT22;4238;48.404;9.498;2023-06-24T14:35:31;25.60;99.90
8402;DHT22;4238;48.404;9.498;2023-06-24T14:37:58;25.90;99.90
8402;DHT22;4238;48.404;9.498;2023-06-24T14:40:24;26.00;99.90
8402;DHT22;4238;48.404;9.498;2023-06-24T14:42:51;26.40;99.90
8402;DHT22;4238;48.404;9.498;2023-06-24T14:45:18;26.40;99.90
8402;DHT22;4238;48.404;9.498;2023-06-24T14:47:45;26.30;99.90
8402;DHT22;4238;48.404;9.498;2023-06-24T14:50:12;26.40;99.90
8402;DHT22;4238;48.404;9.498;2023-06-24T14:52:40;26.60;99.90
8402;DHT22;4238;48.404;9.498;2023-06-24T14:55:08;26.60;99.90
8402;DHT22;4238;48.404;9.498;2023-06-24T14:57:35;26.40;99.90
8402;DHT22;4238;48.404;9.498;2023-06-24T15:00:02;26.30;99.90
8402;DHT22;4238;48.404;9.498;2023-06-24T15:02:29;26.30;99.90
8402;DHT22;4238;48.404;9.498;2023-06-24T15:04:56;26.30;99.90
8402;DHT22;4238;48.404;9.498;2023-06-24T15:07:24;26.00;99.90
8402;DHT22;4238;48.404;9.498;2023-06-24T15:09:52;25.90;99.90
8402;DHT22;4238;48.404;9.498;2023-06-24T15:12:19;25.90;99.90
8402;DHT22;4238;48.404;9.498;2023-06-24T15:14:46;25.90;99.90
8402;DHT22;4238;48.404;9.498;2023-06-24T15:17:14;26.10;99.90
8402;DHT22;4238;48.404;9.498;2023-06-24T15:19:41;26.30;99.90
8402;DHT22;4238;48.404;9.498;2023-06-24T15:22:08;26.20;99.90
8402;DHT22;4238;48.404;9.498;2023-06-24T15:24:36;26.10;99.90
8402;DHT22;4238;48.404;9.498;2023-06-24T15:27:05;25.90;99.90
8402;DHT22;4238;48.404;9.498;2023-06-24T15:29:31;25.40;99.90
8402;DHT22;4238;48.404;9.498;2023-06-24T15:31:59;25.20;99.90
8402;DHT22;4238;48.404;9.498;2023-06-24T15:34:26;24.90;99.90
8402;DHT22;4238;48.404;9.498;2023-06-24T15:36:53;24.60;99.90
8402;DHT22;4238;48.404;9.498;2023-06-24T15:39:20;24.40;99.90
8402;DHT22;4238;48.404;9.498;2023-06-24T15:41:48;24.50;99.90
8402;DHT22;4238;48.404;9.498;2023-06-24T15:44:18;24.60;99.90
8402;DHT22;4238;48.404;9.498;2023-06-24T15:46:44;25.00;99.90
8402;DHT22;4238;48.404;9.498;2023-06-24T15:49:12;25.00;99.90
8402;DHT22;4238;48.404;9.498;2023-06-24T15:51:39;25.30;99.90
8402;DHT22;4238;48.404;9.498;2023-06-24T15:54:06;25.60;99.90
8402;DHT22;4238;48.404;9.498;2023-06-24T15:56:33;25.80;99.90
8402;DHT22;4238;48.404;9.498;2023-06-24T15:59:00;26.00;99.90
8402;DHT22;4238;48.404;9.498;2023-06-24T16:01:28;25.80;99.90
8402;DHT22;4238;48.404;9.498;2023-06-24T16:03:55;25.60;99.90
8402;DHT22;4238;48.404;9.498;2023-06-24T16:06:22;25.30;99.90
8402;DHT22;4238;48.404;9.498;2023-06-24T16:08:49;25.20;99.90
8402;DHT22;4238;48.404;9.498;2023-06-24T16:11:16;25.30;99.90
8402;DHT22;4238;48.404;9.498;2023-06-24T16:13:43;25.40;99.90
8402;DHT22;4238;48.404;9.498;2023-06-24T16:16:10;25.20;99.90
8402;DHT22;4238;48.404;9.498;2023-06-24T16:18:39;24.80;99.90
8402;DHT22;4238;48.404;9.498;2023-06-24T16:21:06;24.60;99.90
8402;DHT22;4238;48.404;9.498;2023-06-24T16:23:33;24.40;99.90
8402;DHT22;4238;48.404;9.498;2023-06-24T16:25:59;24.00;99.90
8402;DHT22;4238;48.404;9.498;2023-06-24T16:28:27;24.10;99.90
8402;DHT22;4238;48.404;9.498;2023-06-24T16:30:54;24.40;99.90
8402;DHT22;4238;48.404;9.498;2023-06-24T16:33:21;24.50;99.90
8402;DHT22;4238;48.404;9.498;2023-06-24T16:35:49;24.80;99.90
8402;DHT22;4238;48.404;9.498;2023-06-24T16:38:16;25.00;99.90
8402;DHT22;4238;48.404;9.498;2023-06-24T16:40:42;24.90;99.90
8402;DHT22;4238;48.404;9.498;2023-06-24T16:43:09;24.90;99.90
8402;DHT22;4238;48.404;9.498;2023-06-24T16:45:36;24.80;99.90
8402;DHT22;4238;48.404;9.498;2023-06-24T16:48:03;24.80;99.90
8402;DHT22;4238;48.404;9.498;2023-06-24T16:50:30;24.70;99.90
8402;DHT22;4238;48.404;9.498;2023-06-24T16:52:58;24.50;99.90
8402;DHT22;4238;48.404;9.498;2023-06-24T16:55:25;24.50;99.90
8402;DHT22;4238;48.404;9.498;2023-06-24T16:57:52;24.50;99.90
8402;DHT22;4238;48.404;9.498;2023-06-24T17:00:19;24.60;99.90
8402;DHT22;4238;48.404;9.498;2023-06-24T17:02:46;24.60;99.90
8402;DHT22;4238;48.404;9.498;2023-06-24T17:05:13;24.50;99.90
8402;DHT22;4238;48.404;9.498;2023-06-24T17:07:40;24.30;99.90
8402;DHT22;4238;48.404;9.498;2023-06-24T17:10:08;24.30;99.90
8402;DHT22;4238;48.404;9.498;2023-06-24T17:12:35;24.20;99.90
8402;DHT22;4238;48.404;9.498;2023-06-24T17:15:02;24.10;99.90
8402;DHT22;4238;48.404;9.498;2023-06-24T17:17:31;23.90;99.90
8402;DHT22;4238;48.404;9.498;2023-06-24T17:19:59;24.00;99.90
8402;DHT22;4238;48.404;9.498;2023-06-24T17:22:26;23.90;99.90
8402;DHT22;4238;48.404;9.498;2023-06-24T17:24:53;23.90;99.90
8402;DHT22;4238;48.404;9.498;2023-06-24T17:27:21;23.80;99.90
8402;DHT22;4238;48.404;9.498;2023-06-24T17:29:48;23.70;99.90
8402;DHT22;4238;48.404;9.498;2023-06-24T17:37:26;23.50;99.90
8402;DHT22;4238;48.404;9.498;2023-06-24T17:39:52;23.50;99.90
8402;DHT22;4238;48.404;9.498;2023-06-24T17:42:21;23.40;99.90
8402;DHT22;4238;48.404;9.498;2023-06-24T17:44:48;23.40;99.90
8402;DHT22;4238;48.404;9.498;2023-06-24T17:47:15;23.40;99.90
8402;DHT22;4238;48.404;9.498;2023-06-24T17:49:42;23.20;99.90
8402;DHT22;4238;48.404;9.498;2023-06-24T17:52:09;23.10;99.90
8402;DHT22;4238;48.404;9.498;2023-06-24T17:54:36;23.10;99.90
8402;DHT22;4238;48.404;9.498;2023-06-24T17:57:03;23.00;99.90
8402;DHT22;4238;48.404;9.498;2023-06-24T17:59:31;23.10;99.90
8402;DHT22;4238;48.404;9.498;2023-06-24T18:01:58;23.10;1.00
8402;DHT22;4238;48.404;9.498;2023-06-24T18:04:25;23.00;99.90
8402;DHT22;4238;48.404;9.498;2023-06-24T18:06:52;23.00;1.00
8402;DHT22;4238;48.404;9.498;2023-06-24T18:09:18;22.90;1.00
8402;DHT22;4238;48.404;9.498;2023-06-24T18:11:46;22.80;1.00
8402;DHT22;4238;48.404;9.498;2023-06-24T18:14:13;22.80;1.00
8402;DHT22;4238;48.404;9.498;2023-06-24T18:16:47;22.70;1.00
8402;DHT22;4238;48.404;9.498;2023-06-24T18:19:14;22.60;1.00
8402;DHT22;4238;48.404;9.498;2023-06-24T18:21:41;22.50;1.00
8402;DHT22;4238;48.404;9.498;2023-06-24T18:24:08;22.40;1.00
8402;DHT22;4238;48.404;9.498;2023-06-24T18:26:35;22.40;1.00
8402;DHT22;4238;48.404;9.498;2023-06-24T18:29:02;22.30;1.00
8402;DHT22;4238;48.404;9.498;2023-06-24T18:31:28;22.20;1.00
8402;DHT22;4238;48.404;9.498;2023-06-24T18:33:57;22.10;1.00
8402;DHT22;4238;48.404;9.498;2023-06-24T18:36:24;22.00;1.00
8402;DHT22;4238;48.404;9.498;2023-06-24T18:38:51;21.90;1.00
8402;DHT22;4238;48.404;9.498;2023-06-24T18:41:18;21.80;1.00
8402;DHT22;4238;48.404;9.498;2023-06-24T18:43:44;21.80;1.00
8402;DHT22;4238;48.404;9.498;2023-06-24T18:46:11;21.80;1.00
8402;DHT22;4238;48.404;9.498;2023-06-24T18:48:38;21.70;1.00
8402;DHT22;4238;48.404;9.498;2023-06-24T18:51:07;21.60;1.00
8402;DHT22;4238;48.404;9.498;2023-06-24T18:53:34;21.60;1.00
8402;DHT22;4238;48.404;9.498;2023-06-24T18:56:01;21.50;1.00
8402;DHT22;4238;48.404;9.498;2023-06-24T18:58:28;21.30;1.00
8402;DHT22;4238;48.404;9.498;2023-06-24T19:00:55;21.30;1.00
8402;DHT22;4238;48.404;9.498;2023-06-24T19:03:22;21.20;42.10
8402;DHT22;4238;48.404;9.498;2023-06-24T19:05:49;20.80;99.90
8402;DHT22;4238;48.404;9.498;2023-06-24T19:08:17;20.80;99.90
8402;DHT22;4238;48.404;9.498;2023-06-24T19:10:44;20.50;99.90
8402;DHT22;4238;48.404;9.498;2023-06-24T19:13:11;20.60;99.90
8402;DHT22;4238;48.404;9.498;2023-06-24T19:15:38;20.50;1.00
8402;DHT22;4238;48.404;9.498;2023-06-24T19:18:04;20.30;1.00
8402;DHT22;4238;48.404;9.498;2023-06-24T19:20:31;20.00;1.00
8402;DHT22;4238;48.404;9.498;2023-06-24T19:22:58;19.80;1.00
8402;DHT22;4238;48.404;9.498;2023-06-24T19:25:26;19.50;90.50
8402;DHT22;4238;48.404;9.498;2023-06-24T19:27:53;19.40;99.90
8402;DHT22;4238;48.404;9.498;2023-06-24T19:30:20;19.20;99.90
8402;DHT22;4238;48.404;9.498;2023-06-24T19:32:47;19.00;99.90
8402;DHT22;4238;48.404;9.498;2023-06-24T19:35:16;18.90;46.00
8402;DHT22;4238;48.404;9.498;2023-06-24T19:37:43;18.80;1.00
8402;DHT22;4238;48.404;9.498;2023-06-24T19:40:11;18.70;99.90
8402;DHT22;4238;48.404;9.498;2023-06-24T19:42:39;18.60;99.90
8402;DHT22;4238;48.404;9.498;2023-06-24T19:45:07;18.60;99.90
8402;DHT22;4238;48.404;9.498;2023-06-24T19:47:35;18.50;99.90
8402;DHT22;4238;48.404;9.498;2023-06-24T19:50:02;18.40;99.90
8402;DHT22;4238;48.404;9.498;2023-06-24T19:52:30;18.40;99.90
8402;DHT22;4238;48.404;9.498;2023-06-24T19:54:57;18.30;1.00
8402;DHT22;4238;48.404;9.498;2023-06-24T19:57:24;18.20;1.00
8402;DHT22;4238;48.404;9.498;2023-06-24T19:59:53;18.10;99.90
8402;DHT22;4238;48.404;9.498;2023-06-24T20:02:19;18.00;1.00
8402;DHT22;4238;48.404;9.498;2023-06-24T20:04:46;17.90;99.90
8402;DHT22;4238;48.404;9.498;2023-06-24T20:07:13;17.90;99.90
8402;DHT22;4238;48.404;9.498;2023-06-24T20:09:40;18.00;99.90
8402;DHT22;4238;48.404;9.498;2023-06-24T20:12:08;17.90;1.00
8402;DHT22;4238;48.404;9.498;2023-06-24T20:14:35;17.90;99.90